createdAt,value
2019-03-27T00:01:55.218Z,5.10
2019-03-27T00:04:24.128Z,6.17
2019-03-27T00:06:53.033Z,7.62
2019-03-27T00:09:21.944Z,3.10
2019-03-27T00:11:50.848Z,3.47
2019-03-27T00:14:19.756Z,7.70
2019-03-27T00:16:48.579Z,9.33
2019-03-27T00:19:17.594Z,8.18
2019-03-27T00:21:46.583Z,10.55
2019-03-27T00:24:15.489Z,7.25
2019-03-27T00:26:44.463Z,9.53
2019-03-27T00:29:13.407Z,14.63
2019-03-27T00:31:42.314Z,14.63
2019-03-27T00:34:11.225Z,15.75
2019-03-27T00:36:40.130Z,19.37
2019-03-27T00:39:09.049Z,24.63
2019-03-27T00:41:37.943Z,21.80
2019-03-27T00:44:06.852Z,24.95
2019-03-27T00:46:35.760Z,26.42
2019-03-27T00:49:04.770Z,22.35
2019-03-27T00:51:33.783Z,24.87
2019-03-27T00:54:02.694Z,22.98
2019-03-27T00:56:31.699Z,22.48
2019-03-27T00:59:00.608Z,19.73
2019-03-27T01:01:29.513Z,11.97
2019-03-27T01:03:58.428Z,11.35
2019-03-27T01:06:27.329Z,9.95
2019-03-27T01:08:56.236Z,10.95
2019-03-27T01:11:25.143Z,8.08
2019-03-27T01:13:54.255Z,10.03
2019-03-27T01:16:23.166Z,11.15
2019-03-27T01:18:52.059Z,12.53
2019-03-27T01:21:20.978Z,15.80
2019-03-27T01:23:49.889Z,23.92
2019-03-27T01:26:18.796Z,15.48
2019-03-27T01:28:47.690Z,15.95
2019-03-27T01:31:16.816Z,17.17
2019-03-27T01:33:45.722Z,15.68
2019-03-27T01:36:14.632Z,16.97
2019-03-27T01:38:43.536Z,20.27
2019-03-27T01:41:12.444Z,13.68
2019-03-27T01:43:41.352Z,15.48
2019-03-27T01:46:10.262Z,19.00
2019-03-27T01:48:39.167Z,15.23
2019-03-27T01:51:08.180Z,18.07
2019-03-27T01:53:37.083Z,10.82
2019-03-27T01:56:05.992Z,10.13
2019-03-27T01:58:34.900Z,7.67
2019-03-27T02:01:04.217Z,10.18
2019-03-27T02:03:33.061Z,10.38
2019-03-27T02:06:02.031Z,14.80
2019-03-27T02:08:30.940Z,12.63
2019-03-27T02:10:59.853Z,13.10
2019-03-27T02:13:28.754Z,9.20
2019-03-27T02:16:06.791Z,9.03
2019-03-27T02:18:28.315Z,7.75
2019-03-27T02:20:57.217Z,9.10
2019-03-27T02:23:26.125Z,11.25
2019-03-27T02:25:55.033Z,10.65
2019-03-27T02:28:23.876Z,5.35
2019-03-27T02:30:52.848Z,13.48
2019-03-27T02:33:21.759Z,11.70
2019-03-27T02:35:50.663Z,8.13
2019-03-27T02:38:19.572Z,6.87
2019-03-27T02:40:48.480Z,10.15
2019-03-27T02:43:17.491Z,8.03
2019-03-27T02:45:46.398Z,8.20
2019-03-27T02:48:15.407Z,10.78
2019-03-27T02:50:44.415Z,14.00
2019-03-27T02:53:13.310Z,12.10
2019-03-27T02:55:42.175Z,11.38
2019-03-27T02:58:11.139Z,11.45
2019-03-27T03:00:40.047Z,12.55
2019-03-27T03:03:08.955Z,11.25
2019-03-27T03:05:37.874Z,10.50
2019-03-27T03:08:06.770Z,6.22
2019-03-27T03:10:35.883Z,9.63
2019-03-27T03:13:04.797Z,16.65
2019-03-27T03:15:33.700Z,13.30
2019-03-27T03:18:02.721Z,11.88
2019-03-27T03:20:31.616Z,12.15
2019-03-27T03:23:00.522Z,15.03
2019-03-27T03:25:29.540Z,18.35
2019-03-27T03:27:58.646Z,10.70
2019-03-27T03:30:27.561Z,9.25
2019-03-27T03:32:56.463Z,9.33
2019-03-27T03:35:25.369Z,15.08
2019-03-27T03:37:54.276Z,10.08
2019-03-27T03:40:23.285Z,10.53
2019-03-27T03:42:52.193Z,15.05
2019-03-27T03:45:21.108Z,13.83
2019-03-27T03:47:50.012Z,16.67
2019-03-27T03:50:34.063Z,11.85
2019-03-27T03:53:03.078Z,10.70
2019-03-27T03:55:33.807Z,9.18
2019-03-27T03:58:02.934Z,9.40
2019-03-27T04:00:33.371Z,12.73
2019-03-27T04:03:04.240Z,9.68
2019-03-27T04:05:33.243Z,11.00
2019-03-27T04:08:02.147Z,9.55
2019-03-27T04:10:31.157Z,10.70
2019-03-27T04:13:00.174Z,8.70
2019-03-27T04:15:29.073Z,13.53
2019-03-27T04:17:57.984Z,10.03
2019-03-27T04:20:26.995Z,8.18
2019-03-27T04:22:55.917Z,9.50
2019-03-27T04:25:24.807Z,13.38
2019-03-27T04:27:53.715Z,8.23
2019-03-27T04:30:22.621Z,11.38
2019-03-27T04:32:51.631Z,12.63
2019-03-27T04:35:20.548Z,14.05
2019-03-27T04:37:49.561Z,24.35
2019-03-27T04:40:18.563Z,27.65
2019-03-27T04:42:47.469Z,26.20
2019-03-27T04:45:18.204Z,30.43
2019-03-27T04:47:47.124Z,24.25
2019-03-27T04:50:16.013Z,20.50
2019-03-27T04:52:45.149Z,16.67
2019-03-27T04:55:15.034Z,15.93
2019-03-27T04:57:43.982Z,18.25
2019-03-27T05:00:13.104Z,17.30
2019-03-27T05:02:42.004Z,13.60
2019-03-27T05:05:11.114Z,16.77
2019-03-27T05:07:41.097Z,21.30
2019-03-27T05:10:10.160Z,20.40
2019-03-27T05:12:39.106Z,8.00
2019-03-27T05:15:08.601Z,10.38
2019-03-27T05:17:45.662Z,12.13
2019-03-27T05:20:09.476Z,12.15
2019-03-27T05:22:38.379Z,14.80
2019-03-27T05:25:08.088Z,16.77
2019-03-27T05:27:37.014Z,13.20
2019-03-27T05:30:07.160Z,13.18
2019-03-27T05:32:36.059Z,12.20
2019-03-27T05:35:06.802Z,16.40
2019-03-27T05:37:36.956Z,14.58
2019-03-27T05:40:07.534Z,14.23
2019-03-27T05:42:36.506Z,9.65
2019-03-27T05:45:05.942Z,12.50
2019-03-27T05:47:34.926Z,13.40
2019-03-27T05:50:03.943Z,18.32
2019-03-27T05:52:32.891Z,19.67
2019-03-27T05:55:01.967Z,13.28
2019-03-27T05:57:30.866Z,18.25
2019-03-27T05:59:59.859Z,18.10
2019-03-27T06:02:28.766Z,15.30
2019-03-27T06:04:57.689Z,16.82
2019-03-27T06:07:26.586Z,12.03
2019-03-27T06:09:55.505Z,15.78
2019-03-27T06:12:24.309Z,12.78
2019-03-27T06:14:55.513Z,15.43
2019-03-27T06:17:24.480Z,20.37
2019-03-27T06:19:53.346Z,10.35
2019-03-27T06:22:22.299Z,12.23
2019-03-27T06:24:51.202Z,8.40
2019-03-27T06:27:20.212Z,11.55
2019-03-27T06:29:49.108Z,13.28
2019-03-27T06:32:18.204Z,16.90
2019-03-27T06:34:47.244Z,21.93
2019-03-27T06:37:16.150Z,16.15
2019-03-27T06:39:45.059Z,13.60
2019-03-27T06:42:13.965Z,14.18
2019-03-27T06:44:42.873Z,15.60
2019-03-27T06:47:11.822Z,15.63
2019-03-27T06:49:40.698Z,14.10
2019-03-27T06:52:09.583Z,21.42
2019-03-27T06:54:38.503Z,12.00
2019-03-27T06:57:07.414Z,16.42
2019-03-27T06:59:36.319Z,17.70
2019-03-27T07:02:05.227Z,12.53
2019-03-27T07:04:34.143Z,20.97
2019-03-27T07:07:03.047Z,14.85
2019-03-27T07:09:31.952Z,13.08
2019-03-27T07:12:00.857Z,12.95
2019-03-27T07:14:29.766Z,13.43
2019-03-27T07:16:58.778Z,19.07
2019-03-27T07:19:27.686Z,17.35
2019-03-27T07:21:56.592Z,15.60
2019-03-27T07:24:25.483Z,16.15
2019-03-27T07:26:54.412Z,20.00
2019-03-27T07:29:23.314Z,16.02
2019-03-27T07:31:52.327Z,22.98
2019-03-27T07:34:21.319Z,16.95
2019-03-27T07:36:52.147Z,7.97
2019-03-27T07:39:20.788Z,6.95
2019-03-27T07:41:49.695Z,10.68
2019-03-27T07:44:18.705Z,17.85
2019-03-27T07:46:47.614Z,14.35
2019-03-27T07:49:16.526Z,18.17
2019-03-27T07:51:45.434Z,13.60
2019-03-27T07:54:14.416Z,9.83
2019-03-27T07:56:43.346Z,9.53
2019-03-27T07:59:12.232Z,14.33
2019-03-27T08:01:41.163Z,25.62
2019-03-27T08:04:10.072Z,27.37
2019-03-27T08:06:39.082Z,23.70
2019-03-27T08:09:08.391Z,26.68
2019-03-27T08:11:37.461Z,22.55
2019-03-27T08:14:06.519Z,16.50
2019-03-27T08:16:35.429Z,11.85
2019-03-27T08:19:07.834Z,10.80
2019-03-27T08:21:34.966Z,11.90
2019-03-27T08:24:04.027Z,11.83
2019-03-27T08:26:32.999Z,6.65
2019-03-27T08:29:01.912Z,11.60
2019-03-27T08:31:31.946Z,5.92
2019-03-27T08:34:00.852Z,9.05
2019-03-27T08:36:29.741Z,6.12
2019-03-27T08:38:58.667Z,10.40
2019-03-27T08:41:27.573Z,9.90
2019-03-27T08:43:56.584Z,16.48
2019-03-27T08:46:25.597Z,9.48
2019-03-27T08:48:54.605Z,8.58
2019-03-27T08:51:23.513Z,20.68
2019-03-27T08:53:52.523Z,10.40
2019-03-27T08:56:21.353Z,5.75
2019-03-27T08:58:50.242Z,9.50
2019-03-27T09:01:19.150Z,4.03
2019-03-27T09:03:48.053Z,4.25
2019-03-27T09:06:17.062Z,5.72
2019-03-27T09:08:46.175Z,4.75
2019-03-27T09:11:15.015Z,4.60
2019-03-27T09:13:44.093Z,6.28
2019-03-27T09:16:13.104Z,12.75
2019-03-27T09:18:42.009Z,10.10
2019-03-27T09:21:11.019Z,7.28
2019-03-27T09:23:40.030Z,14.93
2019-03-27T09:26:09.024Z,15.53
2019-03-27T09:28:37.997Z,9.05
2019-03-27T09:31:06.956Z,13.60
2019-03-27T09:33:35.865Z,13.53
2019-03-27T09:36:05.094Z,15.13
2019-03-27T09:38:34.295Z,9.35
2019-03-27T09:41:03.201Z,6.83
2019-03-27T09:43:32.108Z,5.62
2019-03-27T09:46:01.016Z,4.97
2019-03-27T09:48:29.925Z,5.47
2019-03-27T09:50:58.834Z,6.25
2019-03-27T09:53:27.850Z,8.35
2019-03-27T09:55:56.752Z,10.93
2019-03-27T09:58:25.950Z,6.20
2019-03-27T10:00:56.300Z,8.23
2019-03-27T10:03:25.213Z,10.33
2019-03-27T10:05:54.123Z,15.03
2019-03-27T10:08:23.131Z,10.55
2019-03-27T10:10:52.042Z,14.53
2019-03-27T10:13:20.946Z,12.63
2019-03-27T10:15:49.858Z,9.40
2019-03-27T10:18:18.762Z,9.90
2019-03-27T10:20:47.670Z,15.13
2019-03-27T10:23:16.576Z,9.95
2019-03-27T10:25:45.491Z,6.25
2019-03-27T10:28:14.495Z,4.40
2019-03-27T10:30:43.405Z,6.00
2019-03-27T10:33:15.145Z,4.85
2019-03-27T10:35:42.858Z,6.35
2019-03-27T10:38:11.771Z,9.33
2019-03-27T10:40:40.670Z,9.60
2019-03-27T10:43:09.578Z,9.68
2019-03-27T10:45:38.488Z,9.48
2019-03-27T10:48:07.496Z,10.78
2019-03-27T10:50:36.404Z,14.65
2019-03-27T10:53:05.314Z,16.32
2019-03-27T10:55:34.613Z,14.75
2019-03-27T10:58:03.774Z,10.82
2019-03-27T11:00:32.752Z,8.83
2019-03-27T11:03:01.659Z,14.93
2019-03-27T11:05:30.570Z,13.08
2019-03-27T11:07:59.475Z,13.13
2019-03-27T11:10:28.388Z,11.90
2019-03-27T11:12:57.290Z,13.50
2019-03-27T11:15:26.201Z,8.80
2019-03-27T11:17:55.217Z,11.53
2019-03-27T11:20:30.885Z,13.05
2019-03-27T11:25:23.364Z,8.68
2019-03-27T11:27:52.273Z,9.63
2019-03-27T11:30:24.252Z,21.55
2019-03-27T11:32:53.158Z,17.25
2019-03-27T11:35:22.045Z,11.25
2019-03-27T11:37:50.976Z,11.22
2019-03-27T11:40:19.882Z,13.80
2019-03-27T11:42:48.789Z,15.28
2019-03-27T11:45:17.585Z,16.23
2019-03-27T11:47:46.501Z,19.77
2019-03-27T11:50:15.410Z,12.95
2019-03-27T11:52:44.418Z,14.40
2019-03-27T11:55:13.532Z,14.70
2019-03-27T11:57:42.440Z,14.98
2019-03-27T12:00:11.915Z,16.25
2019-03-27T12:02:40.874Z,13.80
2019-03-27T12:05:10.173Z,13.72
2019-03-27T12:07:39.055Z,15.93
2019-03-27T12:10:08.515Z,14.00
2019-03-27T12:12:37.422Z,13.15
2019-03-27T12:15:08.054Z,15.05
2019-03-27T12:17:36.977Z,12.05
2019-03-27T12:20:07.137Z,14.43
2019-03-27T12:22:36.333Z,16.48
2019-03-27T12:25:06.525Z,15.10
2019-03-27T12:27:35.371Z,17.23
2019-03-27T12:30:08.272Z,15.80
2019-03-27T12:32:37.186Z,15.32
2019-03-27T12:35:06.929Z,10.93
2019-03-27T12:37:35.814Z,12.03
2019-03-27T12:40:11.510Z,9.70
2019-03-27T12:42:36.187Z,7.70
2019-03-27T12:45:06.738Z,7.92
2019-03-27T12:47:35.641Z,9.40
2019-03-27T12:50:07.059Z,4.12
2019-03-27T12:52:36.015Z,5.33
2019-03-27T12:55:06.241Z,11.18
2019-03-27T12:57:35.365Z,4.55
2019-03-27T13:00:06.220Z,6.50
2019-03-27T13:02:35.123Z,5.80
2019-03-27T13:05:05.466Z,6.53
2019-03-27T13:07:34.357Z,3.77
2019-03-27T13:10:03.467Z,3.67
2019-03-27T13:12:32.395Z,8.18
2019-03-27T13:15:01.285Z,4.72
2019-03-27T13:17:30.212Z,4.70
2019-03-27T13:19:59.119Z,6.78
2019-03-27T13:22:28.126Z,1.95
2019-03-27T13:24:57.034Z,5.58
2019-03-27T13:27:26.167Z,4.65
2019-03-27T13:29:55.053Z,10.68
2019-03-27T13:32:23.959Z,7.95
2019-03-27T13:34:52.871Z,9.18
2019-03-27T13:37:21.756Z,12.53
2019-03-27T13:39:50.685Z,18.52
2019-03-27T13:42:19.591Z,12.98
2019-03-27T13:44:48.503Z,11.53
2019-03-27T13:47:17.616Z,10.25
2019-03-27T13:49:46.622Z,13.75
2019-03-27T13:52:15.632Z,13.78
2019-03-27T13:54:44.540Z,11.38
2019-03-27T13:57:14.574Z,11.33
2019-03-27T13:59:43.487Z,9.88
2019-03-27T14:02:13.401Z,10.70
2019-03-27T14:04:42.424Z,14.78
2019-03-27T14:07:11.431Z,12.58
2019-03-27T14:09:40.339Z,12.10
2019-03-27T14:12:09.246Z,11.38
2019-03-27T14:14:49.698Z,11.25
2019-03-27T14:17:08.663Z,13.35
2019-03-27T14:19:37.608Z,10.48
2019-03-27T14:22:06.597Z,8.60
2019-03-27T14:24:35.528Z,11.93
2019-03-27T14:27:04.413Z,13.10
2019-03-27T14:29:33.341Z,15.00
2019-03-27T14:32:02.251Z,12.00
2019-03-27T14:34:31.157Z,11.90
2019-03-27T14:37:00.073Z,8.58
2019-03-27T14:39:28.985Z,14.25
2019-03-27T14:41:57.880Z,10.78
2019-03-27T14:44:26.713Z,9.75
2019-03-27T14:46:55.701Z,9.38
2019-03-27T14:49:24.602Z,10.00
2019-03-27T14:52:07.334Z,9.73
2019-03-27T14:54:24.056Z,9.23
2019-03-27T14:56:52.964Z,13.18
2019-03-27T14:59:21.860Z,9.23
2019-03-27T15:01:50.785Z,21.27
2019-03-27T15:04:19.690Z,7.33
2019-03-27T15:06:48.598Z,9.68
2019-03-27T15:09:17.502Z,6.22
2019-03-27T15:11:46.512Z,14.98
2019-03-27T15:14:15.420Z,7.58
2019-03-27T15:16:44.330Z,8.20
2019-03-27T15:19:13.344Z,8.80
2019-03-27T15:21:42.249Z,6.17
2019-03-27T15:24:11.153Z,7.90
2019-03-27T15:26:40.163Z,4.30
2019-03-27T15:29:09.076Z,5.55
2019-03-27T15:31:37.991Z,7.47
2019-03-27T15:34:06.889Z,6.45
2019-03-27T15:36:35.716Z,10.23
2019-03-27T15:39:07.056Z,9.65
2019-03-27T15:41:35.966Z,17.35
2019-03-27T15:44:04.873Z,5.95
2019-03-27T15:46:33.785Z,5.92
2019-03-27T15:49:02.686Z,7.37
2019-03-27T15:51:31.595Z,7.65
2019-03-27T15:54:00.504Z,13.90
2019-03-27T15:56:29.414Z,8.10
2019-03-27T15:58:58.321Z,12.13
2019-03-27T16:01:27.169Z,19.92
2019-03-27T16:03:56.144Z,15.20
2019-03-27T16:06:25.043Z,12.40
2019-03-27T16:08:53.936Z,14.87
2019-03-27T16:11:22.858Z,19.27
2019-03-27T16:13:51.764Z,11.97
2019-03-27T16:16:20.879Z,12.18
2019-03-27T16:18:49.789Z,9.70
2019-03-27T16:21:18.694Z,20.00
2019-03-27T16:23:47.601Z,22.00
2019-03-27T16:26:16.514Z,20.23
2019-03-27T16:28:45.380Z,29.75
2019-03-27T16:31:14.326Z,21.10
2019-03-27T16:33:43.235Z,20.32
2019-03-27T16:36:12.143Z,16.27
2019-03-27T16:38:41.050Z,7.45
2019-03-27T16:41:09.954Z,16.85
2019-03-27T16:43:38.863Z,14.63
2019-03-27T16:46:08.005Z,24.40
2019-03-27T16:48:37.093Z,11.78
2019-03-27T16:51:05.998Z,11.85
2019-03-27T16:53:35.119Z,15.85
2019-03-27T16:56:04.016Z,14.18
2019-03-27T16:58:33.025Z,15.90
2019-03-27T17:01:01.916Z,13.78
2019-03-27T17:03:30.947Z,18.30
2019-03-27T17:05:59.852Z,13.00
2019-03-27T17:08:28.743Z,11.22
2019-03-27T17:10:57.669Z,11.05
2019-03-27T17:13:26.681Z,16.62
2019-03-27T17:15:55.591Z,15.53
2019-03-27T17:18:24.497Z,20.00
2019-03-27T17:20:53.335Z,16.30
2019-03-27T17:23:22.517Z,18.62
2019-03-27T17:25:53.191Z,21.55
2019-03-27T17:28:21.971Z,17.40
2019-03-27T17:30:50.879Z,15.48
2019-03-27T17:33:19.783Z,21.37
2019-03-27T17:35:48.895Z,13.43
2019-03-27T17:38:18.007Z,11.03
2019-03-27T17:40:46.997Z,22.80
2019-03-27T17:43:15.924Z,17.67
2019-03-27T17:45:46.690Z,32.42
2019-03-27T17:48:15.376Z,59.30
2019-03-27T17:50:44.386Z,60.15
2019-03-27T17:53:13.283Z,59.70
2019-03-27T17:55:42.412Z,52.10
2019-03-27T17:58:11.437Z,46.95
2019-03-27T18:00:45.239Z,35.85
2019-03-27T18:03:14.143Z,31.60
2019-03-27T18:05:43.162Z,27.00
2019-03-27T18:08:12.164Z,22.45
2019-03-27T18:10:41.073Z,19.37
2019-03-27T18:13:09.984Z,24.95
2019-03-27T18:15:38.994Z,17.40
2019-03-27T18:18:07.881Z,18.15
2019-03-27T18:20:36.807Z,19.27
2019-03-27T18:23:05.787Z,25.68
2019-03-27T18:25:34.723Z,15.80
2019-03-27T18:28:03.633Z,14.85
2019-03-27T18:30:32.528Z,17.77
2019-03-27T18:33:01.448Z,16.75
2019-03-27T18:35:30.458Z,15.60
2019-03-27T18:37:59.363Z,15.13
2019-03-27T18:40:28.356Z,18.73
2019-03-27T18:42:57.284Z,19.30
2019-03-27T18:45:26.303Z,26.27
2019-03-27T18:47:55.200Z,24.30
2019-03-27T18:50:24.108Z,24.98
2019-03-27T18:52:53.017Z,27.60
2019-03-27T18:55:26.709Z,31.95
2019-03-27T18:58:00.200Z,32.88
2019-03-27T19:00:23.898Z,33.70
2019-03-27T19:02:53.050Z,29.57
2019-03-27T19:05:21.955Z,29.48
2019-03-27T19:07:50.967Z,24.67
2019-03-27T19:10:19.874Z,35.58
2019-03-27T19:12:48.781Z,28.80
2019-03-27T19:15:17.693Z,34.88
2019-03-27T19:17:46.585Z,28.67
2019-03-27T19:20:15.424Z,28.70
2019-03-27T19:22:44.414Z,27.87
2019-03-27T19:25:13.319Z,27.58
2019-03-27T19:27:42.329Z,29.02
2019-03-27T19:30:11.646Z,30.48
2019-03-27T19:32:40.665Z,37.17
2019-03-27T19:35:09.564Z,30.88
2019-03-27T19:37:38.575Z,24.02
2019-03-27T19:40:07.593Z,33.50
2019-03-27T19:42:36.601Z,37.98
2019-03-27T19:45:07.288Z,31.57
2019-03-27T19:47:36.443Z,30.50
2019-03-27T19:50:07.115Z,29.10
2019-03-27T19:52:36.120Z,34.88
2019-03-27T19:55:05.769Z,32.33
2019-03-27T19:57:34.751Z,39.10
2019-03-27T20:00:05.502Z,38.00
2019-03-27T20:02:34.509Z,47.55
2019-03-27T20:05:03.355Z,40.50
2019-03-27T20:07:36.252Z,39.45
2019-03-27T20:10:02.879Z,32.88
2019-03-27T20:12:31.880Z,32.78
2019-03-27T20:15:11.686Z,35.80
2019-03-27T20:17:32.873Z,37.93
2019-03-27T20:20:01.779Z,31.85
2019-03-27T20:22:30.788Z,37.10
2019-03-27T20:24:59.625Z,30.95
2019-03-27T20:27:28.606Z,35.85
2019-03-27T20:29:57.613Z,36.23
2019-03-27T20:32:26.522Z,32.88
2019-03-27T20:34:55.430Z,34.27
2019-03-27T20:37:24.540Z,43.15
2019-03-27T20:39:53.447Z,40.17
2019-03-27T20:42:22.457Z,38.02
2019-03-27T20:44:51.366Z,39.70
2019-03-27T20:47:20.375Z,39.63
2019-03-27T20:49:49.284Z,46.23
2019-03-27T20:52:18.196Z,40.23
2019-03-27T20:54:54.899Z,40.92
2019-03-27T20:57:17.647Z,36.25
2019-03-27T20:59:46.552Z,34.15
2019-03-27T21:02:15.768Z,32.53
2019-03-27T21:04:44.674Z,34.00
2019-03-27T21:07:13.685Z,38.78
2019-03-27T21:09:42.593Z,39.98
2019-03-27T21:12:11.609Z,40.15
2019-03-27T21:14:41.467Z,36.00
2019-03-27T21:17:10.646Z,34.92
2019-03-27T21:19:39.555Z,33.25
2019-03-27T21:22:08.464Z,30.82
2019-03-27T21:24:37.368Z,31.82
2019-03-27T21:27:06.387Z,31.02
2019-03-27T21:29:35.289Z,33.95
2019-03-27T21:32:04.176Z,31.57
2019-03-27T21:34:33.101Z,33.67
2019-03-27T21:37:02.203Z,32.63
2019-03-27T21:39:31.333Z,36.20
2019-03-27T21:42:00.205Z,36.10
2019-03-27T21:44:35.289Z,28.00
2019-03-27T21:47:04.196Z,28.02
2019-03-27T21:49:33.206Z,28.00
2019-03-27T21:52:02.318Z,28.15
2019-03-27T21:54:31.331Z,24.70
2019-03-27T21:57:00.339Z,30.77
2019-03-27T21:59:29.250Z,27.73
2019-03-27T22:01:58.265Z,27.40
2019-03-27T22:04:27.377Z,29.12
2019-03-27T22:06:56.380Z,33.45
2019-03-27T22:09:25.399Z,30.57
2019-03-27T22:11:54.399Z,34.88
2019-03-27T22:14:23.315Z,26.85
2019-03-27T22:16:52.425Z,25.70
2019-03-27T22:19:22.454Z,24.47
2019-03-27T22:21:51.361Z,26.00
2019-03-27T22:24:20.268Z,25.08
2019-03-27T22:26:49.279Z,25.10
2019-03-27T22:29:18.291Z,24.50
2019-03-27T22:31:47.300Z,23.87
2019-03-27T22:34:16.301Z,25.62
2019-03-27T22:36:45.320Z,29.80
2019-03-27T22:39:14.329Z,23.92
2019-03-27T22:41:43.350Z,24.63
2019-03-27T22:44:12.349Z,29.42
2019-03-27T22:46:41.363Z,25.55
2019-03-27T22:49:10.362Z,28.80
2019-03-27T22:51:39.277Z,21.23
2019-03-27T22:54:08.389Z,22.90
2019-03-27T22:56:37.419Z,26.70
2019-03-27T22:59:06.409Z,29.63
2019-03-27T23:01:44.060Z,27.05
2019-03-27T23:04:13.232Z,24.82
2019-03-27T23:06:42.139Z,22.25
2019-03-27T23:09:11.152Z,22.80
2019-03-27T23:11:40.063Z,25.65
2019-03-27T23:14:09.171Z,30.82
2019-03-27T23:16:38.182Z,31.00
2019-03-27T23:19:07.232Z,23.83
2019-03-27T23:21:36.295Z,21.97
2019-03-27T23:24:05.315Z,30.12
2019-03-27T23:26:34.212Z,27.02
2019-03-27T23:29:03.230Z,20.12
2019-03-27T23:31:32.148Z,23.10
2019-03-27T23:34:01.148Z,27.82
2019-03-27T23:36:30.260Z,27.65
2019-03-27T23:38:59.272Z,24.43
2019-03-27T23:41:28.281Z,23.65
2019-03-27T23:43:57.803Z,20.20
2019-03-27T23:46:26.816Z,23.80
2019-03-27T23:48:55.929Z,18.23
2019-03-27T23:51:24.926Z,19.32
2019-03-27T23:53:53.945Z,21.95
2019-03-27T23:56:23.175Z,18.50
2019-03-27T23:58:53.041Z,17.95
